Station: Mount Buller  

  Atmospheric Gas Attenuation - ITU Rec 676-11   ----------------- dB/100km -----------------
Date Time Temp RH % AH g/m3 Dew Point Wind Direction Speed kph Gust kph Barometer mB Rainfall Since 9am 24GHz 47GHz 76GHz 122GHz 134GHz 241GHz
08/05 12:30 1.8 100 5.49 1.8 39 63 1013.1 0.6 13.4 24.1 32.5 85.0 69.5 235.6
08/05 12:20 1.9 100 5.53 1.9 26 41 1013.1 0.6 13.5 24.2 32.7 85.3 70.0 237.2
08/05 12:10 2.1 100 5.6 2.1 26 41 1013.1 0.6 13.6 24.2 32.9 85.9 70.7 240.0
08/05 12:00 2.2 100 5.64 2.2 28 46 1013.1 0.6 13.7 24.3 33.0 86.2 71.2 241.6
08/05 11:50 2 100 5.56 2 35 48 1013.1 0.6 13.5 24.2 32.8 85.5 70.3 238.4
08/05 11:40 2.1 100 5.6 2.1 28 44 1013.1 0.4 13.6 24.2 32.9 85.9 70.7 240.0
08/05 11:30 2.1 100 5.6 2.1 32 48 1013.1 0.4 13.6 24.2 32.9 85.9 70.7 240.0
08/05 11:20 2.1 100 5.6 2.1 32 44 1013.1 0.4 13.6 24.2 32.9 85.9 70.7 240.0
08/05 11:10 2 100 5.56 2 30 37 1013.1 0.4 13.5 24.2 32.8 85.5 70.3 238.4
08/05 11:00 1.8 100 5.49 1.8 37 50 1013.1 0.4 13.4 24.1 32.5 85.0 69.5 235.6
08/05 10:50 2 100 5.56 2 30 39 1013.1 0.4 13.5 24.2 32.8 85.5 70.3 238.4
08/05 10:40 1.9 100 5.53 1.9 33 44 1013.1 0.4 13.5 24.2 32.7 85.3 70.0 237.2
08/05 10:30 2 100 5.56 2 28 43 1013.1 0.4 13.5 24.2 32.8 85.5 70.3 238.4
08/05 10:20 1.9 100 5.53 1.9 33 43 1013.1 0.4 13.5 24.2 32.7 85.3 70.0 237.2
08/05 10:10 1.9 100 5.53 1.9 32 43 1013.1 0.4 13.5 24.2 32.7 85.3 70.0 237.2
08/05 10:00 1.9 100 5.53 1.9 30 44 1013.1 0.4 13.5 24.2 32.7 85.3 70.0 237.2
08/05 09:50 1.9 100 5.53 1.9 32 39 1013.1 0.4 13.5 24.2 32.7 85.3 70.0 237.2
08/05 09:40 1.8 100 5.49 1.8 33 39 1013.1 0.4 13.4 24.1 32.5 85.0 69.5 235.6
08/05 09:30 1.7 100 5.45 1.7 26 39 1013.1 0.2 13.3 24.1 32.4 84.6 69.1 234.0
08/05 09:20 1.7 100 5.45 1.7 24 32 1013.1 0.2 13.3 24.1 32.4 84.6 69.1 234.0
08/05 09:10 1.6 100 5.41 1.6 26 33 1013.1 0.2 13.2 24.1 32.3 84.3 68.6 232.3
08/05 09:00 1.6 100 5.41 1.6 24 39 1013.1 0 13.2 24.1 32.3 84.3 68.6 232.3
08/05 08:50 1.7 100 5.45 1.7 20 26 1013.1 4.8 13.3 24.1 32.4 84.6 69.1 234.0
08/05 08:40 1.8 100 5.49 1.8 26 32 1013.1 4.8 13.4 24.1 32.5 85.0 69.5 235.6
08/05 08:30 1.8 100 5.49 1.8 19 33 1013.1 4.4 13.4 24.1 32.5 85.0 69.5 235.6
08/05 08:20 1.7 100 5.45 1.7 20 26 1013.1 4.2 13.3 24.1 32.4 84.6 69.1 234.0
08/05 08:10 1.8 100 5.49 1.8 22 33 1013.1 4.2 13.4 24.1 32.5 85.0 69.5 235.6
08/05 08:00 1.7 100 5.45 1.7 22 37 1013.1 4.2 13.3 24.1 32.4 84.6 69.1 234.0
08/05 07:50 1.7 100 5.45 1.7 22 26 1013.1 4 13.3 24.1 32.4 84.6 69.1 234.0
08/05 07:40 1.7 100 5.45 1.7 24 33 1013.1 4 13.3 24.1 32.4 84.6 69.1 234.0
08/05 07:30 1.6 100 5.41 1.6 26 39 1013.1 4 13.2 24.1 32.3 84.3 68.6 232.3
08/05 07:20 1.6 100 5.41 1.6 28 35 1013.1 3.8 13.2 24.1 32.3 84.3 68.6 232.3
08/05 07:10 1.5 100 5.38 1.5 19 26 1013.1 3.8 13.2 24.0 32.2 84.1 68.3 231.2
08/05 07:00 1.5 100 5.38 1.5 28 46 1013.1 3.8 13.2 24.0 32.2 84.1 68.3 231.2
08/05 06:50 1.5 100 5.38 1.5 28 39 1013.1 3.6 13.2 24.0 32.2 84.1 68.3 231.2
08/05 06:40 1.5 100 5.38 1.5 28 35 1013.1 3.4 13.2 24.0 32.2 84.1 68.3 231.2
08/05 06:30 1.4 100 5.34 1.4 28 44 1013.1 3.2 13.1 24.0 32.1 83.7 67.8 229.6
08/05 06:20 1.4 100 5.34 1.4 24 32 1013.1 3.2 13.1 24.0 32.1 83.7 67.8 229.6
08/05 06:10 1.4 100 5.34 1.4 32 41 1013.1 3 13.1 24.0 32.1 83.7 67.8 229.6
08/05 06:00 1.3 100 5.3 1.3 30 41 1013.1 2.8 13.0 24.0 32.0 83.4 67.3 227.9
08/05 05:50 1.4 100 5.34 1.4 33 39 1013.1 2.6 13.1 24.0 32.1 83.7 67.8 229.6
08/05 05:40 1.2 100 5.27 1.2 24 32 1013.1 2.6 12.9 23.9 31.9 83.2 67.0 226.8
08/05 05:30 1.1 100 5.23 1.1 26 41 1013.1 2.4 12.9 23.9 31.7 82.8 66.6 225.1
08/05 05:20 1 100 5.2 1 24 28 1013.1 2.4 12.8 23.9 31.7 82.6 66.2 224.0
08/05 05:10 0.9 100 5.16 0.9 30 37 1013.1 2.4 12.7 23.8 31.5 82.3 65.8 222.3
08/05 05:00 0.9 100 5.16 0.9 28 41 1013.1 2.2 12.7 23.8 31.5 82.3 65.8 222.3
08/05 04:50 0.8 100 5.13 0.8 26 39 1013.1 2.2 12.7 23.8 31.5 82.1 65.4 221.2
08/05 04:40 0.8 100 5.13 0.8 26 32 1013.1 2.2 12.7 23.8 31.5 82.1 65.4 221.2
08/05 04:30 0.7 100 5.09 0.7 28 39 1013.1 2.2 12.6 23.8 31.3 81.7 65.0 219.5
08/05 04:20 0.5 100 5.02 0.5 30 35 1013.1 2.2 12.4 23.7 31.1 81.1 64.2 216.7
08/05 04:10 0.4 100 4.99 0.4 28 33 1013.1 2.2 12.4 23.7 31.0 80.9 63.9 215.6
08/05 04:00 0.6 100 5.06 0.6 32 46 1013.1 2 12.5 23.7 31.2 81.5 64.7 218.4
08/05 03:50 0.7 100 5.09 0.7 33 44 1013.1 2 12.6 23.8 31.3 81.7 65.0 219.5
08/05 03:40 0.5 100 5.02 0.5 22 26 1013.1 2 12.4 23.7 31.1 81.1 64.2 216.7
08/05 03:30 0.5 100 5.02 0.5 26 43 1013.1 1.8 12.4 23.7 31.1 81.1 64.2 216.7
08/05 03:20 0.4 100 4.99 0.4 28 32 1013.1 1.8 12.4 23.7 31.0 80.9 63.9 215.6
08/05 03:10 0.2 100 4.92 0.2 22 28 1013.1 1.6 12.2 23.6 30.8 80.3 63.1 212.7
08/05 03:00 0.1 100 4.89 0.1 20 30 1013.1 1.6 12.2 23.6 30.7 80.1 62.7 211.6
08/05 02:50 0 100 4.85 0 26 33 1013.1 1.6 12.1 23.6 30.6 79.8 62.3 209.9
08/05 02:40 0 100 4.85 0 19 26 1013.1 1.6 12.1 23.6 30.6 79.8 62.3 209.9
08/05 02:30 -0.1 100 4.82 -0.1 24 37 1013.1 1.4 12.0 23.5 30.5 79.6 61.9 208.7
08/05 02:20 -0.1 100 4.82 -0.1 19 22 1013.1 1.4 12.0 23.5 30.5 79.6 61.9 208.7
08/05 02:10 -0.1 100 4.82 -0.1 32 35 1013.1 1.4 12.0 23.5 30.5 79.6 61.9 208.7
08/05 02:00 -0.1 100 4.82 -0.1 26 37 1013.1 1.2 12.0 23.5 30.5 79.6 61.9 208.7
08/05 01:50 0 100 4.85 0 26 35 1013.1 1.2 12.1 23.6 30.6 79.8 62.3 209.9
08/05 01:40 -0.1 100 4.82 -0.1 30 43 1013.1 1.2 12.0 23.5 30.5 79.6 61.9 208.7
08/05 01:30 -0.1 100 4.82 -0.1 26 37 1013.1 1 12.0 23.5 30.5 79.6 61.9 208.7
08/05 01:20 -0.1 100 4.82 -0.1 22 30 1013.1 1 12.0 23.5 30.5 79.6 61.9 208.7
08/05 01:10 -0.1 100 4.82 -0.1 24 32 1013.1 1 12.0 23.5 30.5 79.6 61.9 208.7
08/05 01:00 -0.1 100 4.82 -0.1 24 39 1013.1 1 12.0 23.5 30.5 79.6 61.9 208.7
08/05 00:50 -0.2 100 4.79 -0.2 26 35 1013.1 1 12.0 23.5 30.4 79.3 61.6 207.6
08/05 00:40 -0.2 100 4.79 -0.2 24 32 1013.1 0.8 12.0 23.5 30.4 79.3 61.6 207.6
08/05 00:30 -0.3 100 4.75 -0.3 22 32 1013.1 0.8 11.9 23.5 30.3 79.0 61.1 205.9
08/05 00:20 -0.4 100 4.72 -0.4 26 32 1013.1 0.8 11.8 23.4 30.2 78.7 60.8 204.7
08/05 00:10 -0.5 100 4.69 -0.5 22 30 1013.1 0.8 11.7 23.4 30.1 78.5 60.5 203.6
08/05 00:00 -0.5 100 4.69 -0.5 22 30 1013.1 0.6 11.7 23.4 30.1 78.5 60.5 203.6
07/05 23:50 -0.6 100 4.65 -0.6 24 32 1013.1 0.6 11.7 23.4 30.0 78.2 60.0 201.9
07/05 23:40 -0.6 100 4.65 -0.6 19 24 1013.1 0.6 11.7 23.4 30.0 78.2 60.0 201.9
07/05 23:30 -0.6 100 4.65 -0.6 20 33 1013.1 0.6 11.7 23.4 30.0 78.2 60.0 201.9
07/05 23:20 -0.6 100 4.65 -0.6 22 30 1013.1 0.6 11.7 23.4 30.0 78.2 60.0 201.9
07/05 23:10 -0.7 100 4.62 -0.7 26 32 1013.1 0.6 11.6 23.4 29.9 77.9 59.7 200.7
07/05 23:00 -0.8 100 4.59 -0.8 22 32 1013.1 0.6 11.5 23.3 29.8 77.7 59.3 199.5
07/05 22:50 -0.8 100 4.59 -0.8 22 28 1013.1 0.4 11.5 23.3 29.8 77.7 59.3 199.5
07/05 22:40 -0.9 100 4.56 -0.9 19 22 1013.1 0.4 11.5 23.3 29.7 77.5 59.0 198.3
07/05 22:30 -1.1 100 4.5 -1.1 24 39 1013.1 0.2 11.4 23.3 29.6 77.0 58.3 196.0
07/05 22:20 -1.2 100 4.46 -1.2 33 37 1013.1 0 11.3 23.2 29.4 76.7 57.9 194.3
07/05 22:10 -1.3 100 4.43 -1.3 24 30 1013.1 0 11.2 23.2 29.4 76.4 57.5 193.1
07/05 22:00 -1.3 100 4.43 -1.3 28 37 1013.1 0 11.2 23.2 29.4 76.4 57.5 193.1
07/05 21:50 -1.4 100 4.4 -1.4 33 39 1013.1 0 11.1 23.2 29.3 76.2 57.2 191.9
07/05 21:40 -1.6 100 4.34 -1.6 26 32 1013.1 0 11.0 23.1 29.1 75.7 56.5 189.5
07/05 21:30 -1.7 100 4.31 -1.7 26 41 1013.1 0 11.0 23.1 29.0 75.5 56.2 188.3
07/05 21:20 -1.8 100 4.28 -1.8 33 44 1013.1 0 10.9 23.1 28.9 75.3 55.9 187.1
07/05 21:10 -1.9 100 4.25 -1.9 26 32 1013.1 0 10.8 23.1 28.8 75.0 55.5 185.9
07/05 21:00 -1.9 100 4.25 -1.9 28 39 1013.1 0 10.8 23.1 28.8 75.0 55.5 185.9
07/05 20:50 -2 100 4.22 -2 24 32 1013.1 0 10.8 23.0 28.7 74.8 55.2 184.7
07/05 20:40 -2 100 4.22 -2 30 39 1013.1 0 10.8 23.0 28.7 74.8 55.2 184.7
07/05 20:30 -2.1 100 4.19 -2.1 28 39 1013.1 0 10.7 23.0 28.7 74.6 54.8 183.5
07/05 20:20 -2.1 100 4.19 -2.1 28 33 1013.1 0 10.7 23.0 28.7 74.6 54.8 183.5
07/05 20:10 -2.3 100 4.13 -2.3 26 37 1013.1 0 10.6 23.0 28.5 74.1 54.2 181.1
07/05 20:00 -2.3 100 4.13 -2.3 20 33 1013.1 0 10.6 23.0 28.5 74.1 54.2 181.1

Last Refresh: 08-May-2026 12:08:16

Bureau of Meteorology